sensor_id;sensor_type;location;lat;lon;timestamp;P1;durP1;ratioP1;P2;durP2;ratioP2
11653;SDS011;5883;48.818;9.114;2023-05-01T00:02:40;9.65;;;6.00;;
11653;SDS011;5883;48.818;9.114;2023-05-01T00:05:26;6.18;;;5.55;;
11653;SDS011;5883;48.818;9.114;2023-05-01T00:08:11;7.25;;;5.93;;
11653;SDS011;5883;48.818;9.114;2023-05-01T00:11:02;10.60;;;5.82;;
11653;SDS011;5883;48.818;9.114;2023-05-01T00:13:47;6.85;;;5.88;;
11653;SDS011;5883;48.818;9.114;2023-05-01T00:16:32;7.65;;;6.22;;
11653;SDS011;5883;48.818;9.114;2023-05-01T00:19:18;6.05;;;5.45;;
11653;SDS011;5883;48.818;9.114;2023-05-01T00:22:03;7.70;;;5.50;;
11653;SDS011;5883;48.818;9.114;2023-05-01T00:24:48;7.43;;;5.25;;
11653;SDS011;5883;48.818;9.114;2023-05-01T00:27:34;6.65;;;5.20;;
11653;SDS011;5883;48.818;9.114;2023-05-01T00:30:19;8.38;;;5.90;;
11653;SDS011;5883;48.818;9.114;2023-05-01T00:33:04;6.85;;;5.75;;
11653;SDS011;5883;48.818;9.114;2023-05-01T00:35:49;7.30;;;5.80;;
11653;SDS011;5883;48.818;9.114;2023-05-01T00:38:35;7.13;;;5.50;;
11653;SDS011;5883;48.818;9.114;2023-05-01T00:41:20;8.35;;;5.85;;
11653;SDS011;5883;48.818;9.114;2023-05-01T00:44:06;5.97;;;4.97;;
11653;SDS011;5883;48.818;9.114;2023-05-01T00:46:51;5.68;;;5.07;;
11653;SDS011;5883;48.818;9.114;2023-05-01T00:49:37;6.90;;;5.68;;
11653;SDS011;5883;48.818;9.114;2023-05-01T00:52:25;8.60;;;6.38;;
11653;SDS011;5883;48.818;9.114;2023-05-01T00:55:10;8.43;;;6.75;;
11653;SDS011;5883;48.818;9.114;2023-05-01T00:57:55;7.63;;;6.28;;
11653;SDS011;5883;48.818;9.114;2023-05-01T01:00:42;8.30;;;5.72;;
11653;SDS011;5883;48.818;9.114;2023-05-01T01:03:30;5.93;;;5.32;;
11653;SDS011;5883;48.818;9.114;2023-05-01T01:06:20;6.70;;;5.93;;
11653;SDS011;5883;48.818;9.114;2023-05-01T01:09:12;8.77;;;5.90;;
11653;SDS011;5883;48.818;9.114;2023-05-01T01:12:02;7.18;;;5.45;;
11653;SDS011;5883;48.818;9.114;2023-05-01T01:14:52;6.95;;;6.10;;
11653;SDS011;5883;48.818;9.114;2023-05-01T01:17:43;6.82;;;5.25;;
11653;SDS011;5883;48.818;9.114;2023-05-01T01:20:30;5.50;;;4.97;;
11653;SDS011;5883;48.818;9.114;2023-05-01T01:23:23;7.95;;;5.45;;
11653;SDS011;5883;48.818;9.114;2023-05-01T01:26:18;5.28;;;4.78;;
11653;SDS011;5883;48.818;9.114;2023-05-01T01:32:17;5.82;;;5.13;;
11653;SDS011;5883;48.818;9.114;2023-05-01T01:35:11;5.28;;;4.78;;
11653;SDS011;5883;48.818;9.114;2023-05-01T01:38:02;5.65;;;4.78;;
11653;SDS011;5883;48.818;9.114;2023-05-01T01:40:49;5.70;;;5.05;;
11653;SDS011;5883;48.818;9.114;2023-05-01T01:43:38;7.47;;;5.38;;
11653;SDS011;5883;48.818;9.114;2023-05-01T01:46:24;5.10;;;4.60;;
11653;SDS011;5883;48.818;9.114;2023-05-01T01:49:11;6.22;;;5.30;;
11653;SDS011;5883;48.818;9.114;2023-05-01T01:51:58;6.32;;;5.07;;
11653;SDS011;5883;48.818;9.114;2023-05-01T01:54:47;6.65;;;5.25;;
11653;SDS011;5883;48.818;9.114;2023-05-01T01:57:33;6.15;;;5.07;;
11653;SDS011;5883;48.818;9.114;2023-05-01T02:00:18;5.72;;;5.10;;
11653;SDS011;5883;48.818;9.114;2023-05-01T02:03:04;7.32;;;5.55;;
11653;SDS011;5883;48.818;9.114;2023-05-01T02:05:51;5.95;;;5.13;;
11653;SDS011;5883;48.818;9.114;2023-05-01T02:08:38;7.45;;;5.50;;
11653;SDS011;5883;48.818;9.114;2023-05-01T02:11:23;5.97;;;5.38;;
11653;SDS011;5883;48.818;9.114;2023-05-01T02:14:09;6.25;;;5.20;;
11653;SDS011;5883;48.818;9.114;2023-05-01T02:16:55;7.35;;;5.25;;
11653;SDS011;5883;48.818;9.114;2023-05-01T02:19:41;6.90;;;5.47;;
11653;SDS011;5883;48.818;9.114;2023-05-01T02:22:28;8.38;;;5.75;;
11653;SDS011;5883;48.818;9.114;2023-05-01T02:25:15;5.93;;;5.28;;
11653;SDS011;5883;48.818;9.114;2023-05-01T02:28:01;7.25;;;5.10;;
11653;SDS011;5883;48.818;9.114;2023-05-01T02:30:47;9.52;;;5.45;;
11653;SDS011;5883;48.818;9.114;2023-05-01T02:33:32;7.57;;;4.80;;
11653;SDS011;5883;48.818;9.114;2023-05-01T02:36:17;5.63;;;5.13;;
11653;SDS011;5883;48.818;9.114;2023-05-01T02:39:02;6.18;;;5.07;;
11653;SDS011;5883;48.818;9.114;2023-05-01T02:41:48;6.63;;;5.38;;
11653;SDS011;5883;48.818;9.114;2023-05-01T02:44:37;6.05;;;4.85;;
11653;SDS011;5883;48.818;9.114;2023-05-01T02:47:23;7.47;;;5.40;;
11653;SDS011;5883;48.818;9.114;2023-05-01T02:50:09;8.80;;;5.60;;
11653;SDS011;5883;48.818;9.114;2023-05-01T02:52:55;7.25;;;5.57;;
11653;SDS011;5883;48.818;9.114;2023-05-01T02:55:40;6.40;;;5.55;;
11653;SDS011;5883;48.818;9.114;2023-05-01T02:58:29;7.25;;;5.47;;
11653;SDS011;5883;48.818;9.114;2023-05-01T03:01:14;6.13;;;5.35;;
11653;SDS011;5883;48.818;9.114;2023-05-01T03:04:00;6.35;;;5.72;;
11653;SDS011;5883;48.818;9.114;2023-05-01T03:06:45;9.05;;;5.15;;
11653;SDS011;5883;48.818;9.114;2023-05-01T03:09:30;6.82;;;6.10;;
11653;SDS011;5883;48.818;9.114;2023-05-01T03:12:15;6.15;;;5.55;;
11653;SDS011;5883;48.818;9.114;2023-05-01T03:15:02;7.95;;;5.05;;
11653;SDS011;5883;48.818;9.114;2023-05-01T03:17:48;6.70;;;4.88;;
11653;SDS011;5883;48.818;9.114;2023-05-01T03:20:33;8.13;;;5.00;;
11653;SDS011;5883;48.818;9.114;2023-05-01T03:23:18;6.15;;;4.30;;
11653;SDS011;5883;48.818;9.114;2023-05-01T03:26:04;5.60;;;5.10;;
11653;SDS011;5883;48.818;9.114;2023-05-01T03:28:50;5.10;;;4.60;;
11653;SDS011;5883;48.818;9.114;2023-05-01T03:31:36;7.72;;;5.13;;
11653;SDS011;5883;48.818;9.114;2023-05-01T03:34:21;5.07;;;4.60;;
11653;SDS011;5883;48.818;9.114;2023-05-01T03:37:06;4.97;;;4.35;;
11653;SDS011;5883;48.818;9.114;2023-05-01T03:39:51;4.93;;;4.40;;
11653;SDS011;5883;48.818;9.114;2023-05-01T03:42:36;6.15;;;4.72;;
11653;SDS011;5883;48.818;9.114;2023-05-01T03:45:21;7.82;;;4.90;;
11653;SDS011;5883;48.818;9.114;2023-05-01T03:48:07;8.68;;;5.10;;
11653;SDS011;5883;48.818;9.114;2023-05-01T03:50:52;6.05;;;4.80;;
11653;SDS011;5883;48.818;9.114;2023-05-01T03:53:37;6.28;;;5.40;;
11653;SDS011;5883;48.818;9.114;2023-05-01T03:56:22;6.15;;;5.45;;
11653;SDS011;5883;48.818;9.114;2023-05-01T03:59:08;7.07;;;6.10;;
11653;SDS011;5883;48.818;9.114;2023-05-01T04:01:53;7.53;;;6.35;;
11653;SDS011;5883;48.818;9.114;2023-05-01T04:04:39;8.43;;;5.65;;
11653;SDS011;5883;48.818;9.114;2023-05-01T04:07:24;6.40;;;5.10;;
11653;SDS011;5883;48.818;9.114;2023-05-01T04:10:09;6.95;;;6.20;;
11653;SDS011;5883;48.818;9.114;2023-05-01T04:12:54;6.85;;;5.82;;
11653;SDS011;5883;48.818;9.114;2023-05-01T04:15:42;5.72;;;5.00;;
11653;SDS011;5883;48.818;9.114;2023-05-01T04:18:27;8.05;;;6.15;;
11653;SDS011;5883;48.818;9.114;2023-05-01T04:21:13;7.85;;;6.15;;
11653;SDS011;5883;48.818;9.114;2023-05-01T04:24:00;6.68;;;5.70;;
11653;SDS011;5883;48.818;9.114;2023-05-01T04:26:45;6.82;;;5.80;;
11653;SDS011;5883;48.818;9.114;2023-05-01T04:29:30;6.50;;;5.25;;
11653;SDS011;5883;48.818;9.114;2023-05-01T04:32:15;6.05;;;5.45;;
11653;SDS011;5883;48.818;9.114;2023-05-01T04:35:00;7.90;;;5.90;;
11653;SDS011;5883;48.818;9.114;2023-05-01T04:37:46;6.55;;;5.85;;
11653;SDS011;5883;48.818;9.114;2023-05-01T04:40:31;6.88;;;5.80;;
11653;SDS011;5883;48.818;9.114;2023-05-01T04:43:16;6.80;;;5.93;;
11653;SDS011;5883;48.818;9.114;2023-05-01T04:46:02;5.95;;;5.35;;
11653;SDS011;5883;48.818;9.114;2023-05-01T04:48:47;6.60;;;5.90;;
11653;SDS011;5883;48.818;9.114;2023-05-01T04:51:32;7.97;;;5.88;;
11653;SDS011;5883;48.818;9.114;2023-05-01T04:54:18;7.82;;;5.65;;
11653;SDS011;5883;48.818;9.114;2023-05-01T04:57:03;7.72;;;6.32;;
11653;SDS011;5883;48.818;9.114;2023-05-01T04:59:48;8.13;;;5.95;;
11653;SDS011;5883;48.818;9.114;2023-05-01T05:02:33;6.60;;;5.35;;
11653;SDS011;5883;48.818;9.114;2023-05-01T05:05:18;6.82;;;6.13;;
11653;SDS011;5883;48.818;9.114;2023-05-01T05:08:02;6.47;;;5.72;;
11653;SDS011;5883;48.818;9.114;2023-05-01T05:10:49;7.03;;;6.30;;
11653;SDS011;5883;48.818;9.114;2023-05-01T05:13:39;7.30;;;5.72;;
11653;SDS011;5883;48.818;9.114;2023-05-01T05:16:24;9.68;;;5.90;;
11653;SDS011;5883;48.818;9.114;2023-05-01T05:19:09;6.82;;;6.05;;
11653;SDS011;5883;48.818;9.114;2023-05-01T05:21:54;6.55;;;5.90;;
11653;SDS011;5883;48.818;9.114;2023-05-01T05:24:39;10.05;;;6.25;;
11653;SDS011;5883;48.818;9.114;2023-05-01T05:27:26;10.55;;;6.20;;
11653;SDS011;5883;48.818;9.114;2023-05-01T05:30:11;8.23;;;6.22;;
11653;SDS011;5883;48.818;9.114;2023-05-01T05:32:57;7.20;;;6.00;;
11653;SDS011;5883;48.818;9.114;2023-05-01T05:35:42;7.70;;;6.57;;
11653;SDS011;5883;48.818;9.114;2023-05-01T05:38:27;9.80;;;6.75;;
11653;SDS011;5883;48.818;9.114;2023-05-01T05:41:12;7.95;;;6.93;;
11653;SDS011;5883;48.818;9.114;2023-05-01T05:43:58;6.82;;;6.13;;
11653;SDS011;5883;48.818;9.114;2023-05-01T05:46:43;7.88;;;6.50;;
11653;SDS011;5883;48.818;9.114;2023-05-01T05:49:28;9.32;;;6.25;;
11653;SDS011;5883;48.818;9.114;2023-05-01T05:52:13;7.93;;;6.80;;
11653;SDS011;5883;48.818;9.114;2023-05-01T05:54:58;8.07;;;6.60;;
11653;SDS011;5883;48.818;9.114;2023-05-01T05:57:43;7.18;;;6.15;;
11653;SDS011;5883;48.818;9.114;2023-05-01T06:00:30;7.75;;;6.82;;
11653;SDS011;5883;48.818;9.114;2023-05-01T06:03:15;9.30;;;7.38;;
11653;SDS011;5883;48.818;9.114;2023-05-01T06:06:00;10.48;;;7.05;;
11653;SDS011;5883;48.818;9.114;2023-05-01T06:08:46;8.60;;;7.10;;
11653;SDS011;5883;48.818;9.114;2023-05-01T06:11:31;7.38;;;6.68;;
11653;SDS011;5883;48.818;9.114;2023-05-01T06:14:15;6.82;;;6.10;;
11653;SDS011;5883;48.818;9.114;2023-05-01T06:17:02;7.85;;;6.78;;
11653;SDS011;5883;48.818;9.114;2023-05-01T06:19:47;7.82;;;7.03;;
11653;SDS011;5883;48.818;9.114;2023-05-01T06:22:33;8.25;;;6.65;;
11653;SDS011;5883;48.818;9.114;2023-05-01T06:25:18;8.00;;;6.50;;
11653;SDS011;5883;48.818;9.114;2023-05-01T06:28:03;7.00;;;6.30;;
11653;SDS011;5883;48.818;9.114;2023-05-01T06:30:48;10.50;;;6.70;;
11653;SDS011;5883;48.818;9.114;2023-05-01T06:33:34;8.68;;;7.20;;
11653;SDS011;5883;48.818;9.114;2023-05-01T06:36:19;9.05;;;7.55;;
11653;SDS011;5883;48.818;9.114;2023-05-01T06:39:04;8.20;;;7.07;;
11653;SDS011;5883;48.818;9.114;2023-05-01T06:41:49;8.98;;;6.95;;
11653;SDS011;5883;48.818;9.114;2023-05-01T06:44:34;9.05;;;6.75;;
11653;SDS011;5883;48.818;9.114;2023-05-01T06:47:19;8.18;;;6.88;;
11653;SDS011;5883;48.818;9.114;2023-05-01T06:50:08;9.00;;;6.88;;
11653;SDS011;5883;48.818;9.114;2023-05-01T06:52:54;7.57;;;6.38;;
11653;SDS011;5883;48.818;9.114;2023-05-01T06:55:38;7.97;;;6.72;;
11653;SDS011;5883;48.818;9.114;2023-05-01T06:58:23;7.25;;;6.32;;
11653;SDS011;5883;48.818;9.114;2023-05-01T07:01:08;7.05;;;6.35;;
11653;SDS011;5883;48.818;9.114;2023-05-01T07:03:53;6.57;;;5.88;;
11653;SDS011;5883;48.818;9.114;2023-05-01T07:06:39;6.38;;;5.78;;
11653;SDS011;5883;48.818;9.114;2023-05-01T07:09:24;7.85;;;6.50;;
11653;SDS011;5883;48.818;9.114;2023-05-01T07:12:09;10.52;;;5.80;;
11653;SDS011;5883;48.818;9.114;2023-05-01T07:14:55;7.57;;;6.32;;
11653;SDS011;5883;48.818;9.114;2023-05-01T07:17:40;7.35;;;6.20;;
11653;SDS011;5883;48.818;9.114;2023-05-01T07:20:25;6.03;;;5.20;;
11653;SDS011;5883;48.818;9.114;2023-05-01T07:23:12;6.97;;;6.03;;
11653;SDS011;5883;48.818;9.114;2023-05-01T07:25:57;7.63;;;6.68;;
11653;SDS011;5883;48.818;9.114;2023-05-01T07:28:42;6.53;;;5.93;;
11653;SDS011;5883;48.818;9.114;2023-05-01T07:31:27;8.75;;;6.20;;
11653;SDS011;5883;48.818;9.114;2023-05-01T07:34:12;7.72;;;6.20;;
11653;SDS011;5883;48.818;9.114;2023-05-01T07:36:59;8.73;;;6.18;;
11653;SDS011;5883;48.818;9.114;2023-05-01T07:39:45;6.93;;;5.63;;
11653;SDS011;5883;48.818;9.114;2023-05-01T07:42:31;7.47;;;5.10;;
11653;SDS011;5883;48.818;9.114;2023-05-01T07:45:16;7.35;;;5.30;;
11653;SDS011;5883;48.818;9.114;2023-05-01T07:48:02;5.93;;;5.10;;
11653;SDS011;5883;48.818;9.114;2023-05-01T07:50:48;5.80;;;4.93;;
11653;SDS011;5883;48.818;9.114;2023-05-01T07:53:33;7.28;;;5.47;;
11653;SDS011;5883;48.818;9.114;2023-05-01T07:56:20;5.75;;;4.63;;
11653;SDS011;5883;48.818;9.114;2023-05-01T07:59:05;5.85;;;5.25;;
11653;SDS011;5883;48.818;9.114;2023-05-01T08:01:50;6.05;;;5.15;;
11653;SDS011;5883;48.818;9.114;2023-05-01T08:04:35;7.50;;;5.25;;
11653;SDS011;5883;48.818;9.114;2023-05-01T08:07:21;5.75;;;4.93;;
11653;SDS011;5883;48.818;9.114;2023-05-01T08:10:07;6.25;;;5.13;;
11653;SDS011;5883;48.818;9.114;2023-05-01T08:12:54;5.60;;;4.57;;
11653;SDS011;5883;48.818;9.114;2023-05-01T08:15:39;6.38;;;4.95;;
11653;SDS011;5883;48.818;9.114;2023-05-01T08:18:25;8.52;;;4.50;;
11653;SDS011;5883;48.818;9.114;2023-05-01T08:21:10;7.10;;;5.00;;
11653;SDS011;5883;48.818;9.114;2023-05-01T08:23:55;5.65;;;5.00;;
11653;SDS011;5883;48.818;9.114;2023-05-01T08:26:40;7.03;;;5.85;;
11653;SDS011;5883;48.818;9.114;2023-05-01T08:29:27;6.80;;;4.65;;
11653;SDS011;5883;48.818;9.114;2023-05-01T08:32:13;5.50;;;5.00;;
11653;SDS011;5883;48.818;9.114;2023-05-01T08:34:58;5.72;;;5.10;;
11653;SDS011;5883;48.818;9.114;2023-05-01T08:37:43;5.55;;;4.65;;
11653;SDS011;5883;48.818;9.114;2023-05-01T08:40:30;9.70;;;4.85;;
11653;SDS011;5883;48.818;9.114;2023-05-01T08:43:15;6.68;;;4.88;;
11653;SDS011;5883;48.818;9.114;2023-05-01T08:46:03;5.10;;;4.40;;
11653;SDS011;5883;48.818;9.114;2023-05-01T08:48:50;5.70;;;4.40;;
11653;SDS011;5883;48.818;9.114;2023-05-01T08:51:37;4.88;;;4.38;;
11653;SDS011;5883;48.818;9.114;2023-05-01T08:54:22;6.57;;;4.85;;
11653;SDS011;5883;48.818;9.114;2023-05-01T08:57:09;5.88;;;4.43;;
11653;SDS011;5883;48.818;9.114;2023-05-01T08:59:54;6.30;;;4.85;;
11653;SDS011;5883;48.818;9.114;2023-05-01T09:02:41;4.80;;;4.40;;
11653;SDS011;5883;48.818;9.114;2023-05-01T09:05:27;6.15;;;4.20;;
11653;SDS011;5883;48.818;9.114;2023-05-01T09:08:12;5.00;;;4.53;;
11653;SDS011;5883;48.818;9.114;2023-05-01T09:10:57;5.28;;;4.47;;
11653;SDS011;5883;48.818;9.114;2023-05-01T09:13:43;6.05;;;4.03;;
11653;SDS011;5883;48.818;9.114;2023-05-01T09:16:29;7.75;;;4.47;;
11653;SDS011;5883;48.818;9.114;2023-05-01T09:19:16;4.82;;;4.32;;
11653;SDS011;5883;48.818;9.114;2023-05-01T09:22:01;5.03;;;3.88;;
11653;SDS011;5883;48.818;9.114;2023-05-01T09:24:46;5.50;;;4.47;;
11653;SDS011;5883;48.818;9.114;2023-05-01T09:27:32;4.25;;;3.85;;
11653;SDS011;5883;48.818;9.114;2023-05-01T09:30:31;8.23;;;4.28;;
11653;SDS011;5883;48.818;9.114;2023-05-01T09:33:17;4.60;;;3.88;;
11653;SDS011;5883;48.818;9.114;2023-05-01T09:36:04;4.90;;;4.03;;
11653;SDS011;5883;48.818;9.114;2023-05-01T09:38:49;4.80;;;4.15;;
11653;SDS011;5883;48.818;9.114;2023-05-01T09:41:34;4.72;;;3.72;;
11653;SDS011;5883;48.818;9.114;2023-05-01T09:44:19;5.25;;;3.83;;
11653;SDS011;5883;48.818;9.114;2023-05-01T09:47:04;4.32;;;3.92;;
11653;SDS011;5883;48.818;9.114;2023-05-01T09:49:50;5.68;;;3.80;;
11653;SDS011;5883;48.818;9.114;2023-05-01T09:52:38;4.30;;;3.90;;
11653;SDS011;5883;48.818;9.114;2023-05-01T09:55:23;5.63;;;3.75;;
11653;SDS011;5883;48.818;9.114;2023-05-01T09:58:11;4.30;;;3.90;;
11653;SDS011;5883;48.818;9.114;2023-05-01T10:01:09;4.75;;;4.22;;
11653;SDS011;5883;48.818;9.114;2023-05-01T10:03:55;8.95;;;4.18;;
11653;SDS011;5883;48.818;9.114;2023-05-01T10:06:40;4.70;;;4.03;;
11653;SDS011;5883;48.818;9.114;2023-05-01T10:09:27;5.68;;;4.10;;
11653;SDS011;5883;48.818;9.114;2023-05-01T10:12:13;6.80;;;4.28;;
11653;SDS011;5883;48.818;9.114;2023-05-01T10:15:07;5.15;;;4.25;;
11653;SDS011;5883;48.818;9.114;2023-05-01T10:17:53;5.57;;;3.95;;
11653;SDS011;5883;48.818;9.114;2023-05-01T10:20:38;5.05;;;4.18;;
11653;SDS011;5883;48.818;9.114;2023-05-01T10:23:23;4.95;;;4.45;;
11653;SDS011;5883;48.818;9.114;2023-05-01T10:26:10;5.25;;;4.10;;
11653;SDS011;5883;48.818;9.114;2023-05-01T10:28:57;5.80;;;4.10;;
11653;SDS011;5883;48.818;9.114;2023-05-01T10:31:43;4.70;;;4.25;;
11653;SDS011;5883;48.818;9.114;2023-05-01T10:34:28;4.40;;;4.00;;
11653;SDS011;5883;48.818;9.114;2023-05-01T10:37:17;4.78;;;4.30;;
11653;SDS011;5883;48.818;9.114;2023-05-01T10:43:15;4.75;;;4.28;;
11653;SDS011;5883;48.818;9.114;2023-05-01T10:46:25;4.05;;;3.72;;
11653;SDS011;5883;48.818;9.114;2023-05-01T10:49:10;6.47;;;4.15;;
11653;SDS011;5883;48.818;9.114;2023-05-01T10:51:59;6.72;;;4.93;;
11653;SDS011;5883;48.818;9.114;2023-05-01T10:54:46;4.75;;;4.22;;
11653;SDS011;5883;48.818;9.114;2023-05-01T10:57:40;4.60;;;4.05;;
11653;SDS011;5883;48.818;9.114;2023-05-01T11:00:28;4.88;;;4.25;;
11653;SDS011;5883;48.818;9.114;2023-05-01T11:06:17;5.03;;;4.47;;
11653;SDS011;5883;48.818;9.114;2023-05-01T11:09:34;4.75;;;4.25;;
11653;SDS011;5883;48.818;9.114;2023-05-01T11:12:08;4.53;;;4.00;;
11653;SDS011;5883;48.818;9.114;2023-05-01T11:15:01;7.45;;;4.55;;
11653;SDS011;5883;48.818;9.114;2023-05-01T11:17:48;5.85;;;4.20;;
11653;SDS011;5883;48.818;9.114;2023-05-01T11:20:45;5.55;;;4.38;;
11653;SDS011;5883;48.818;9.114;2023-05-01T11:23:30;5.28;;;4.47;;
11653;SDS011;5883;48.818;9.114;2023-05-01T11:26:15;4.75;;;4.32;;
11653;SDS011;5883;48.818;9.114;2023-05-01T11:29:00;6.13;;;4.63;;
11653;SDS011;5883;48.818;9.114;2023-05-01T11:31:47;5.50;;;4.30;;
11653;SDS011;5883;48.818;9.114;2023-05-01T11:34:35;4.97;;;4.40;;
11653;SDS011;5883;48.818;9.114;2023-05-01T11:40:21;4.15;;;3.75;;
11653;SDS011;5883;48.818;9.114;2023-05-01T11:43:07;5.03;;;4.53;;
11653;SDS011;5883;48.818;9.114;2023-05-01T11:45:52;7.25;;;4.38;;
11653;SDS011;5883;48.818;9.114;2023-05-01T11:48:47;7.43;;;5.00;;
11653;SDS011;5883;48.818;9.114;2023-05-01T11:51:34;6.10;;;4.72;;
11653;SDS011;5883;48.818;9.114;2023-05-01T11:54:19;4.80;;;4.40;;
11653;SDS011;5883;48.818;9.114;2023-05-01T11:57:05;4.75;;;4.22;;
11653;SDS011;5883;48.818;9.114;2023-05-01T11:59:50;6.25;;;4.70;;
11653;SDS011;5883;48.818;9.114;2023-05-01T12:02:35;4.47;;;4.07;;
11653;SDS011;5883;48.818;9.114;2023-05-01T12:05:21;5.00;;;4.50;;
11653;SDS011;5883;48.818;9.114;2023-05-01T12:08:10;4.78;;;4.28;;
11653;SDS011;5883;48.818;9.114;2023-05-01T12:10:57;5.13;;;4.40;;
11653;SDS011;5883;48.818;9.114;2023-05-01T12:13:42;5.45;;;4.07;;
11653;SDS011;5883;48.818;9.114;2023-05-01T12:16:30;4.07;;;3.67;;
11653;SDS011;5883;48.818;9.114;2023-05-01T12:19:16;4.68;;;3.90;;
11653;SDS011;5883;48.818;9.114;2023-05-01T12:22:05;4.53;;;4.13;;
11653;SDS011;5883;48.818;9.114;2023-05-01T12:24:54;6.07;;;4.63;;
11653;SDS011;5883;48.818;9.114;2023-05-01T12:27:41;6.40;;;4.50;;
11653;SDS011;5883;48.818;9.114;2023-05-01T12:30:28;4.43;;;3.78;;
11653;SDS011;5883;48.818;9.114;2023-05-01T12:33:13;5.78;;;4.40;;
11653;SDS011;5883;48.818;9.114;2023-05-01T12:36:07;7.63;;;4.40;;
11653;SDS011;5883;48.818;9.114;2023-05-01T12:38:53;4.38;;;4.00;;
11653;SDS011;5883;48.818;9.114;2023-05-01T12:41:41;4.80;;;4.30;;
11653;SDS011;5883;48.818;9.114;2023-05-01T12:44:27;4.60;;;3.97;;
11653;SDS011;5883;48.818;9.114;2023-05-01T12:47:13;4.10;;;3.65;;
11653;SDS011;5883;48.818;9.114;2023-05-01T12:50:02;5.60;;;4.40;;
11653;SDS011;5883;48.818;9.114;2023-05-01T12:52:47;4.90;;;4.35;;
11653;SDS011;5883;48.818;9.114;2023-05-01T12:55:41;5.75;;;4.18;;
11653;SDS011;5883;48.818;9.114;2023-05-01T12:58:34;4.90;;;4.40;;
11653;SDS011;5883;48.818;9.114;2023-05-01T13:01:23;6.13;;;4.35;;
11653;SDS011;5883;48.818;9.114;2023-05-01T13:04:08;4.90;;;4.50;;
11653;SDS011;5883;48.818;9.114;2023-05-01T13:06:54;8.30;;;4.70;;
11653;SDS011;5883;48.818;9.114;2023-05-01T13:09:39;6.63;;;4.70;;
11653;SDS011;5883;48.818;9.114;2023-05-01T13:12:34;5.88;;;4.53;;
11653;SDS011;5883;48.818;9.114;2023-05-01T13:15:29;4.88;;;4.20;;
11653;SDS011;5883;48.818;9.114;2023-05-01T13:18:14;6.38;;;4.72;;
11653;SDS011;5883;48.818;9.114;2023-05-01T13:21:06;4.63;;;4.18;;
11653;SDS011;5883;48.818;9.114;2023-05-01T13:23:53;4.65;;;4.05;;
11653;SDS011;5883;48.818;9.114;2023-05-01T13:26:38;4.95;;;4.03;;
11653;SDS011;5883;48.818;9.114;2023-05-01T13:29:24;4.53;;;4.13;;
11653;SDS011;5883;48.818;9.114;2023-05-01T13:32:11;4.25;;;3.85;;
11653;SDS011;5883;48.818;9.114;2023-05-01T13:34:59;6.15;;;4.45;;
11653;SDS011;5883;48.818;9.114;2023-05-01T13:37:45;4.78;;;4.10;;
11653;SDS011;5883;48.818;9.114;2023-05-01T13:40:30;3.78;;;3.47;;
11653;SDS011;5883;48.818;9.114;2023-05-01T13:43:18;5.05;;;4.03;;
11653;SDS011;5883;48.818;9.114;2023-05-01T13:46:05;6.60;;;4.80;;
11653;SDS011;5883;48.818;9.114;2023-05-01T13:48:51;5.30;;;4.60;;
11653;SDS011;5883;48.818;9.114;2023-05-01T13:51:39;5.05;;;4.53;;
11653;SDS011;5883;48.818;9.114;2023-05-01T13:54:25;5.93;;;4.88;;
11653;SDS011;5883;48.818;9.114;2023-05-01T13:57:10;5.10;;;4.60;;
11653;SDS011;5883;48.818;9.114;2023-05-01T13:59:56;5.30;;;4.80;;
11653;SDS011;5883;48.818;9.114;2023-05-01T14:02:41;5.90;;;5.30;;
11653;SDS011;5883;48.818;9.114;2023-05-01T14:05:28;6.05;;;5.45;;
11653;SDS011;5883;48.818;9.114;2023-05-01T14:08:13;5.93;;;4.95;;
11653;SDS011;5883;48.818;9.114;2023-05-01T14:10:59;5.30;;;4.72;;
11653;SDS011;5883;48.818;9.114;2023-05-01T14:13:44;5.35;;;4.50;;
11653;SDS011;5883;48.818;9.114;2023-05-01T14:16:30;8.50;;;4.90;;
11653;SDS011;5883;48.818;9.114;2023-05-01T14:19:15;4.88;;;4.38;;
11653;SDS011;5883;48.818;9.114;2023-05-01T14:22:02;6.30;;;5.38;;
11653;SDS011;5883;48.818;9.114;2023-05-01T14:24:47;5.43;;;4.68;;
11653;SDS011;5883;48.818;9.114;2023-05-01T14:27:32;5.55;;;5.05;;
11653;SDS011;5883;48.818;9.114;2023-05-01T14:30:24;5.55;;;5.00;;
11653;SDS011;5883;48.818;9.114;2023-05-01T14:33:10;6.32;;;4.95;;
11653;SDS011;5883;48.818;9.114;2023-05-01T14:35:55;10.40;;;5.53;;
11653;SDS011;5883;48.818;9.114;2023-05-01T14:38:42;5.63;;;5.05;;
11653;SDS011;5883;48.818;9.114;2023-05-01T14:41:31;5.22;;;4.72;;
11653;SDS011;5883;48.818;9.114;2023-05-01T14:44:21;5.45;;;4.95;;
11653;SDS011;5883;48.818;9.114;2023-05-01T14:47:08;6.43;;;5.15;;
11653;SDS011;5883;48.818;9.114;2023-05-01T14:49:53;6.10;;;5.00;;
11653;SDS011;5883;48.818;9.114;2023-05-01T14:52:38;6.22;;;5.15;;
11653;SDS011;5883;48.818;9.114;2023-05-01T14:55:25;5.97;;;4.85;;
11653;SDS011;5883;48.818;9.114;2023-05-01T14:58:11;6.00;;;5.05;;
11653;SDS011;5883;48.818;9.114;2023-05-01T15:00:55;6.15;;;5.43;;
11653;SDS011;5883;48.818;9.114;2023-05-01T15:03:41;6.15;;;4.88;;
11653;SDS011;5883;48.818;9.114;2023-05-01T15:06:26;7.47;;;5.40;;
11653;SDS011;5883;48.818;9.114;2023-05-01T15:09:11;6.55;;;5.93;;
11653;SDS011;5883;48.818;9.114;2023-05-01T15:11:58;7.38;;;5.03;;
11653;SDS011;5883;48.818;9.114;2023-05-01T15:14:43;8.25;;;5.75;;
11653;SDS011;5883;48.818;9.114;2023-05-01T15:17:28;5.82;;;5.22;;
11653;SDS011;5883;48.818;9.114;2023-05-01T15:20:14;7.22;;;5.53;;
11653;SDS011;5883;48.818;9.114;2023-05-01T15:22:59;8.57;;;6.10;;
11653;SDS011;5883;48.818;9.114;2023-05-01T15:25:44;6.88;;;5.50;;
11653;SDS011;5883;48.818;9.114;2023-05-01T15:28:31;6.30;;;5.45;;
11653;SDS011;5883;48.818;9.114;2023-05-01T15:31:16;9.00;;;5.60;;
11653;SDS011;5883;48.818;9.114;2023-05-01T15:34:02;9.95;;;5.40;;
11653;SDS011;5883;48.818;9.114;2023-05-01T15:36:48;6.05;;;5.43;;
11653;SDS011;5883;48.818;9.114;2023-05-01T15:39:36;6.28;;;5.50;;
11653;SDS011;5883;48.818;9.114;2023-05-01T15:42:22;5.95;;;5.28;;
11653;SDS011;5883;48.818;9.114;2023-05-01T15:45:09;5.95;;;5.32;;
11653;SDS011;5883;48.818;9.114;2023-05-01T15:47:55;6.65;;;5.30;;
11653;SDS011;5883;48.818;9.114;2023-05-01T15:50:40;5.25;;;4.70;;
11653;SDS011;5883;48.818;9.114;2023-05-01T15:53:25;6.40;;;5.18;;
11653;SDS011;5883;48.818;9.114;2023-05-01T15:56:10;9.48;;;5.43;;
11653;SDS011;5883;48.818;9.114;2023-05-01T15:58:54;6.60;;;5.15;;
11653;SDS011;5883;48.818;9.114;2023-05-01T16:01:41;6.18;;;5.53;;
11653;SDS011;5883;48.818;9.114;2023-05-01T16:04:26;5.97;;;5.25;;
11653;SDS011;5883;48.818;9.114;2023-05-01T16:07:11;8.35;;;5.13;;
11653;SDS011;5883;48.818;9.114;2023-05-01T16:09:56;6.40;;;5.45;;
11653;SDS011;5883;48.818;9.114;2023-05-01T16:12:42;6.65;;;4.95;;
11653;SDS011;5883;48.818;9.114;2023-05-01T16:15:27;6.70;;;5.63;;
11653;SDS011;5883;48.818;9.114;2023-05-01T16:18:17;7.38;;;5.50;;
11653;SDS011;5883;48.818;9.114;2023-05-01T16:21:03;6.78;;;5.50;;
11653;SDS011;5883;48.818;9.114;2023-05-01T16:23:48;10.27;;;7.65;;
11653;SDS011;5883;48.818;9.114;2023-05-01T16:26:34;8.75;;;6.25;;
11653;SDS011;5883;48.818;9.114;2023-05-01T16:29:19;6.35;;;5.45;;
11653;SDS011;5883;48.818;9.114;2023-05-01T16:32:04;5.50;;;4.82;;
11653;SDS011;5883;48.818;9.114;2023-05-01T16:34:51;5.47;;;4.78;;
11653;SDS011;5883;48.818;9.114;2023-05-01T16:37:36;5.95;;;4.35;;
11653;SDS011;5883;48.818;9.114;2023-05-01T16:40:22;4.35;;;3.95;;
11653;SDS011;5883;48.818;9.114;2023-05-01T16:43:07;5.70;;;3.17;;
11653;SDS011;5883;48.818;9.114;2023-05-01T16:45:53;4.95;;;3.33;;
11653;SDS011;5883;48.818;9.114;2023-05-01T16:48:38;2.75;;;2.55;;
11653;SDS011;5883;48.818;9.114;2023-05-01T16:51:25;3.28;;;2.67;;
11653;SDS011;5883;48.818;9.114;2023-05-01T16:54:10;3.53;;;3.22;;
11653;SDS011;5883;48.818;9.114;2023-05-01T16:56:55;3.20;;;2.90;;
11653;SDS011;5883;48.818;9.114;2023-05-01T16:59:40;7.85;;;5.10;;
11653;SDS011;5883;48.818;9.114;2023-05-01T17:02:26;5.22;;;3.78;;
11653;SDS011;5883;48.818;9.114;2023-05-01T17:05:11;3.80;;;3.50;;
11653;SDS011;5883;48.818;9.114;2023-05-01T17:07:58;3.88;;;3.30;;
11653;SDS011;5883;48.818;9.114;2023-05-01T17:10:44;5.28;;;4.78;;